createdAt,value
2018-06-01T00:00:55.568Z,20.94
2018-06-01T00:01:55.632Z,21.01
2018-06-01T00:02:55.733Z,20.93
2018-06-01T00:03:55.760Z,21.01
2018-06-01T00:04:56.158Z,20.96
2018-06-01T00:05:55.886Z,20.93
2018-06-01T00:06:55.951Z,21.05
2018-06-01T00:07:56.019Z,21.03
2018-06-01T00:08:56.076Z,21.05
2018-06-01T00:09:56.142Z,21.08
2018-06-01T00:10:56.206Z,21.00
2018-06-01T00:11:56.269Z,20.93
2018-06-01T00:12:56.332Z,21.01
2018-06-01T00:13:56.395Z,20.96
2018-06-01T00:14:56.475Z,21.00
2018-06-01T00:15:56.521Z,20.96
2018-06-01T00:16:56.908Z,20.88
2018-06-01T00:17:56.649Z,20.83
2018-06-01T00:18:56.714Z,20.82
2018-06-01T00:19:56.779Z,20.76
2018-06-01T00:20:56.841Z,20.83
2018-06-01T00:21:57.462Z,20.76
2018-06-01T00:22:56.967Z,20.81
2018-06-01T00:23:57.030Z,20.79
2018-06-01T00:24:57.093Z,20.79
2018-06-01T00:25:57.157Z,20.79
2018-06-01T00:26:57.281Z,20.88
2018-06-01T00:27:57.284Z,20.75
2018-06-01T00:28:57.347Z,20.76
2018-06-01T00:29:57.412Z,20.64
2018-06-01T00:30:57.475Z,20.64
2018-06-01T00:31:57.539Z,20.60
2018-06-01T00:32:57.602Z,20.64
2018-06-01T00:33:57.665Z,20.64
2018-06-01T00:34:57.729Z,20.57
2018-06-01T00:35:57.792Z,20.66
2018-06-01T00:36:57.855Z,20.64
2018-06-01T00:37:57.920Z,20.69
2018-06-01T00:38:57.982Z,20.75
2018-06-01T00:39:58.045Z,20.72
2018-06-01T00:40:58.110Z,20.61
2018-06-01T00:41:58.172Z,20.66
2018-06-01T00:42:58.236Z,20.61
2018-06-01T00:43:58.299Z,20.66
2018-06-01T00:44:58.366Z,20.60
2018-06-01T00:45:58.427Z,20.61
2018-06-01T00:46:58.490Z,20.64
2018-06-01T00:47:58.552Z,20.66
2018-06-01T00:48:58.617Z,20.66
2018-06-01T00:49:58.679Z,20.61
2018-06-01T00:50:58.743Z,20.78
2018-06-01T00:51:58.809Z,20.83
2018-06-01T00:52:58.871Z,20.87
2018-06-01T00:53:58.935Z,20.88
2018-06-01T00:54:58.998Z,20.90
2018-06-01T00:55:59.059Z,20.79
2018-06-01T00:56:59.123Z,20.61
2018-06-01T00:57:59.185Z,20.61
2018-06-01T00:58:59.251Z,20.73
2018-06-01T00:59:59.312Z,20.79
2018-06-01T01:00:59.375Z,20.82
2018-06-01T01:01:59.690Z,20.81
2018-06-01T01:02:59.503Z,20.83
2018-06-01T01:03:59.566Z,20.75
2018-06-01T01:04:59.629Z,20.76
2018-06-01T01:05:59.692Z,20.78
2018-06-01T01:06:59.756Z,20.76
2018-06-01T01:07:59.820Z,20.82
2018-06-01T01:09:00.220Z,20.76
2018-06-01T01:09:59.945Z,20.71
2018-06-01T01:11:00.010Z,20.73
2018-06-01T01:12:00.071Z,20.71
2018-06-01T01:13:00.134Z,20.73
2018-06-01T01:14:00.198Z,20.71
2018-06-01T01:15:00.264Z,20.64
2018-06-01T01:16:00.323Z,20.60
2018-06-01T01:17:00.387Z,20.60
2018-06-01T01:18:00.450Z,20.56
2018-06-01T01:19:00.515Z,20.54
2018-06-01T01:20:00.575Z,20.63
2018-06-01T01:21:00.641Z,20.57
2018-06-01T01:22:00.707Z,20.48
2018-06-01T01:23:00.766Z,20.44
2018-06-01T01:24:00.828Z,20.33
2018-06-01T01:25:00.891Z,20.30
2018-06-01T01:26:00.955Z,20.19
2018-06-01T01:27:01.019Z,20.10
2018-06-01T01:28:01.080Z,19.95
2018-06-01T01:29:01.166Z,19.83
2018-06-01T01:30:01.210Z,19.76
2018-06-01T01:31:01.270Z,19.55
2018-06-01T01:32:01.332Z,19.28
2018-06-01T01:33:01.395Z,19.09
2018-06-01T01:34:01.459Z,18.97
2018-06-01T01:35:01.521Z,19.12
2018-06-01T01:36:01.583Z,19.09
2018-06-01T01:37:01.647Z,19.16
2018-06-01T01:38:01.714Z,19.09
2018-06-01T01:39:01.772Z,19.02
2018-06-01T01:40:01.833Z,19.09
2018-06-01T01:41:01.898Z,19.09
2018-06-01T01:42:01.959Z,18.99
2018-06-01T01:43:02.026Z,19.17
2018-06-01T01:44:02.085Z,19.16
2018-06-01T01:45:03.346Z,19.21
2018-06-01T01:46:02.210Z,19.20
2018-06-01T01:47:02.271Z,19.17
2018-06-01T01:48:02.331Z,19.23
2018-06-01T01:49:02.399Z,19.38
2018-06-01T01:50:02.474Z,19.25
2018-06-01T01:51:02.867Z,19.20
2018-06-01T01:52:02.581Z,19.15
2018-06-01T01:53:02.645Z,19.15
2018-06-01T01:54:02.705Z,19.17
2018-06-01T01:55:02.768Z,19.20
2018-06-01T01:56:02.835Z,19.32
2018-06-01T01:57:02.891Z,19.21
2018-06-01T01:58:02.952Z,19.34
2018-06-01T01:59:03.016Z,19.20
2018-06-01T02:00:03.077Z,19.13
2018-06-01T02:01:03.142Z,19.02
2018-06-01T02:02:03.202Z,19.09
2018-06-01T02:03:03.264Z,19.01
2018-06-01T02:04:03.324Z,18.87
2018-06-01T02:05:03.388Z,18.84
2018-06-01T02:06:03.449Z,18.84
2018-06-01T02:07:03.511Z,18.90
2018-06-01T02:08:03.572Z,18.76
2018-06-01T02:09:03.634Z,18.86
2018-06-01T02:10:03.697Z,18.84
2018-06-01T02:11:03.760Z,18.83
2018-06-01T02:12:03.820Z,18.84
2018-06-01T02:13:03.882Z,18.75
2018-06-01T02:14:03.943Z,18.84
2018-06-01T02:15:04.010Z,18.78
2018-06-01T02:16:04.070Z,18.71
2018-06-01T02:17:04.129Z,18.72
2018-06-01T02:18:04.191Z,18.75
2018-06-01T02:19:04.254Z,18.74
2018-06-01T02:20:04.564Z,18.65
2018-06-01T02:21:04.377Z,18.57
2018-06-01T02:22:04.438Z,18.53
2018-06-01T02:23:04.501Z,18.44
2018-06-01T02:24:04.561Z,18.34
2018-06-01T02:25:04.623Z,18.31
2018-06-01T02:26:04.686Z,18.29
2018-06-01T02:27:04.748Z,18.23
2018-06-01T02:28:04.809Z,18.10
2018-06-01T02:29:04.870Z,17.94
2018-06-01T02:30:04.934Z,17.86
2018-06-01T02:31:04.994Z,17.83
2018-06-01T02:32:05.061Z,17.81
2018-06-01T02:33:05.116Z,17.77
2018-06-01T02:34:05.181Z,17.74
2018-06-01T02:35:05.244Z,17.70
2018-06-01T02:36:05.302Z,17.68
2018-06-01T02:37:05.364Z,17.68
2018-06-01T02:38:05.429Z,17.71
2018-06-01T02:39:05.486Z,17.66
2018-06-01T02:40:05.552Z,17.76
2018-06-01T02:41:05.610Z,17.87
2018-06-01T02:42:05.673Z,17.87
2018-06-01T02:43:05.734Z,17.83
2018-06-01T02:44:05.795Z,17.77
2018-06-01T02:45:05.856Z,17.84
2018-06-01T02:46:05.918Z,17.79
2018-06-01T02:47:05.980Z,17.91
2018-06-01T02:48:06.041Z,17.77
2018-06-01T02:49:06.123Z,17.80
2018-06-01T02:50:06.165Z,17.80
2018-06-01T02:51:06.225Z,17.87
2018-06-01T02:52:06.284Z,17.87
2018-06-01T02:53:06.349Z,17.86
2018-06-01T02:54:06.409Z,17.95
2018-06-01T02:55:06.475Z,18.02
2018-06-01T02:56:06.532Z,18.02
2018-06-01T02:57:06.594Z,18.09
2018-06-01T02:58:06.655Z,18.04
2018-06-01T02:59:06.717Z,18.10
2018-06-01T03:00:06.777Z,18.10
2018-06-01T03:01:06.838Z,18.11
2018-06-01T03:02:06.901Z,18.29
2018-06-01T03:03:06.960Z,18.20
2018-06-01T03:04:07.025Z,18.20
2018-06-01T03:05:07.083Z,18.13
2018-06-01T03:06:07.149Z,18.20
2018-06-01T03:07:07.207Z,18.31
2018-06-01T03:08:07.269Z,18.31
2018-06-01T03:09:07.329Z,18.28
2018-06-01T03:10:07.391Z,18.19
2018-06-01T03:11:07.456Z,18.32
2018-06-01T03:12:07.519Z,18.19
2018-06-01T03:13:07.576Z,18.29
2018-06-01T03:14:07.639Z,18.20
2018-06-01T03:15:07.701Z,18.34
2018-06-01T03:16:07.762Z,18.28
2018-06-01T03:17:07.821Z,18.25
2018-06-01T03:18:07.894Z,18.19
2018-06-01T03:19:07.946Z,18.34
2018-06-01T03:20:08.007Z,18.41
2018-06-01T03:21:08.070Z,18.49
2018-06-01T03:22:08.380Z,18.59
2018-06-01T03:23:08.191Z,18.57
2018-06-01T03:24:08.252Z,18.68
2018-06-01T03:25:08.328Z,18.56
2018-06-01T03:26:08.381Z,18.62
2018-06-01T03:27:08.438Z,18.65
2018-06-01T03:28:08.507Z,18.62
2018-06-01T03:29:08.560Z,18.62
2018-06-01T03:30:08.987Z,18.74
2018-06-01T03:31:08.684Z,18.84
2018-06-01T03:32:08.746Z,18.75
2018-06-01T03:33:08.807Z,18.78
2018-06-01T03:34:08.869Z,18.79
2018-06-01T03:35:08.932Z,18.65
2018-06-01T03:36:08.992Z,18.57
2018-06-01T03:37:09.053Z,18.47
2018-06-01T03:38:09.115Z,18.56
2018-06-01T03:39:09.175Z,18.53
2018-06-01T03:40:09.237Z,18.47
2018-06-01T03:41:09.300Z,18.50
2018-06-01T03:42:09.364Z,18.44
2018-06-01T03:43:09.424Z,18.49
2018-06-01T03:44:09.484Z,18.47
2018-06-01T03:45:09.546Z,18.57
2018-06-01T03:46:09.608Z,18.51
2018-06-01T03:47:09.672Z,18.51
2018-06-01T03:48:09.732Z,18.50
2018-06-01T03:49:09.793Z,18.57
2018-06-01T03:50:09.856Z,18.54
2018-06-01T03:51:09.918Z,18.59
2018-06-01T03:52:09.979Z,18.56
2018-06-01T03:53:10.040Z,18.56
2018-06-01T03:54:10.103Z,18.56
2018-06-01T03:55:10.164Z,18.54
2018-06-01T03:56:10.225Z,18.59
2018-06-01T03:57:10.287Z,18.56
2018-06-01T03:58:10.349Z,18.64
2018-06-01T03:59:10.413Z,18.65
2018-06-01T04:00:10.473Z,18.72
2018-06-01T04:01:10.571Z,18.74
2018-06-01T04:02:10.598Z,18.71
2018-06-01T04:03:10.659Z,18.76
2018-06-01T04:04:10.721Z,18.76
2018-06-01T04:05:10.782Z,18.65
2018-06-01T04:06:10.845Z,18.68
2018-06-01T04:07:10.907Z,18.75
2018-06-01T04:08:10.969Z,18.72
2018-06-01T04:09:11.029Z,18.62
2018-06-01T04:10:11.091Z,18.59
2018-06-01T04:11:11.156Z,18.60
2018-06-01T04:12:11.215Z,18.62
2018-06-01T04:13:11.277Z,18.69
2018-06-01T04:14:11.339Z,18.68
2018-06-01T04:15:11.404Z,18.57
2018-06-01T04:16:11.466Z,18.60
2018-06-01T04:17:11.524Z,18.71
2018-06-01T04:18:11.593Z,18.71
2018-06-01T04:19:11.648Z,18.72
2018-06-01T04:20:11.710Z,18.65
2018-06-01T04:21:11.771Z,18.69
2018-06-01T04:22:11.835Z,18.68
2018-06-01T04:23:11.896Z,18.64
2018-06-01T04:24:11.957Z,18.69
2018-06-01T04:25:12.020Z,18.69
2018-06-01T04:26:12.088Z,18.74
2018-06-01T04:27:12.144Z,18.87
2018-06-01T04:28:12.205Z,18.82
2018-06-01T04:29:12.267Z,18.83
2018-06-01T04:30:12.330Z,18.68
2018-06-01T04:31:12.393Z,18.82
2018-06-01T04:32:12.454Z,18.79
2018-06-01T04:33:12.515Z,18.78
2018-06-01T04:34:12.579Z,18.90
2018-06-01T04:35:12.642Z,18.76
2018-06-01T04:36:12.702Z,18.78
2018-06-01T04:37:12.765Z,18.96
2018-06-01T04:38:12.829Z,18.90
2018-06-01T04:39:12.889Z,19.07
2018-06-01T04:40:12.951Z,19.12
2018-06-01T04:41:13.012Z,19.20
2018-06-01T04:42:13.075Z,19.27
2018-06-01T04:43:13.139Z,19.32
2018-06-01T04:44:13.201Z,19.30
2018-06-01T04:45:13.263Z,19.32
2018-06-01T04:46:13.324Z,19.31
2018-06-01T04:47:13.388Z,19.43
2018-06-01T04:48:13.450Z,19.52
2018-06-01T04:49:13.536Z,19.57
2018-06-01T04:50:13.575Z,19.62
2018-06-01T04:51:13.638Z,19.64
2018-06-01T04:52:13.699Z,19.65
2018-06-01T04:53:13.777Z,19.82
2018-06-01T04:54:13.826Z,19.78
2018-06-01T04:55:13.921Z,19.82
2018-06-01T04:56:14.024Z,19.71
2018-06-01T04:57:14.020Z,19.85
2018-06-01T04:58:14.080Z,19.94
2018-06-01T04:59:14.142Z,19.92
2018-06-01T05:00:14.203Z,19.90
2018-06-01T05:01:14.265Z,20.04
2018-06-01T05:02:14.330Z,20.00
2018-06-01T05:03:14.394Z,19.95
2018-06-01T05:04:14.456Z,19.80
2018-06-01T05:05:14.519Z,19.60
2018-06-01T05:06:14.589Z,19.53
2018-06-01T05:07:14.647Z,19.55
2018-06-01T05:08:14.710Z,19.58
2018-06-01T05:09:14.772Z,19.53
2018-06-01T05:10:14.837Z,19.61
2018-06-01T05:11:14.900Z,19.75
2018-06-01T05:12:14.964Z,19.79
2018-06-01T05:13:15.026Z,19.90
2018-06-01T05:14:15.092Z,20.00
2018-06-01T05:15:15.153Z,20.00
2018-06-01T05:16:15.217Z,20.08
2018-06-01T05:17:15.281Z,20.05
2018-06-01T05:18:15.344Z,20.05
2018-06-01T05:19:15.408Z,19.90
2018-06-01T05:20:15.470Z,19.75
2018-06-01T05:21:15.534Z,19.83
2018-06-01T05:22:15.612Z,19.82
2018-06-01T05:23:15.663Z,19.89
2018-06-01T05:24:15.726Z,20.04
2018-06-01T05:25:15.790Z,20.01
2018-06-01T05:26:15.853Z,20.07
2018-06-01T05:27:15.919Z,20.16
2018-06-01T05:28:15.982Z,20.17
2018-06-01T05:29:16.044Z,20.31
2018-06-01T05:30:16.109Z,20.30
2018-06-01T05:31:16.173Z,20.48
2018-06-01T05:32:16.237Z,20.50
2018-06-01T05:33:16.300Z,20.51
2018-06-01T05:34:16.366Z,20.50
2018-06-01T05:35:16.428Z,20.64
2018-06-01T05:36:16.492Z,20.71
2018-06-01T05:37:16.556Z,20.69
2018-06-01T05:38:16.620Z,20.60
2018-06-01T05:39:16.685Z,20.50
2018-06-01T05:40:16.749Z,20.48
2018-06-01T05:41:16.813Z,20.53
2018-06-01T05:42:16.881Z,20.51
2018-06-01T05:43:16.942Z,20.54
2018-06-01T05:44:17.006Z,20.48
2018-06-01T05:45:17.071Z,20.54
2018-06-01T05:46:17.135Z,20.58
2018-06-01T05:47:17.202Z,20.40
2018-06-01T05:48:17.263Z,20.50
2018-06-01T05:49:17.328Z,20.50
2018-06-01T05:50:17.393Z,20.50
2018-06-01T05:51:17.457Z,20.40
2018-06-01T05:52:17.551Z,20.48
2018-06-01T05:53:17.584Z,20.48
2018-06-01T05:54:17.652Z,20.35
2018-06-01T05:55:17.713Z,20.31
2018-06-01T05:56:17.777Z,20.23
2018-06-01T05:57:17.844Z,20.31
2018-06-01T05:58:17.905Z,20.34
2018-06-01T05:59:17.974Z,20.41
2018-06-01T06:00:18.034Z,20.53
2018-06-01T06:01:18.098Z,20.53
2018-06-01T06:02:18.161Z,20.50
2018-06-01T06:03:18.227Z,20.53
2018-06-01T06:04:18.289Z,20.48
2018-06-01T06:05:18.357Z,20.46
2018-06-01T06:06:18.418Z,20.40
2018-06-01T06:07:18.486Z,20.53
2018-06-01T06:08:18.546Z,20.57
2018-06-01T06:09:18.610Z,20.53
2018-06-01T06:10:18.674Z,20.63
2018-06-01T06:11:18.738Z,20.64
2018-06-01T06:12:18.801Z,20.61
2018-06-01T06:13:18.887Z,20.51
2018-06-01T06:14:18.934Z,20.53
2018-06-01T06:15:19.466Z,20.53
2018-06-01T06:16:19.057Z,20.50
2018-06-01T06:17:19.160Z,20.54
2018-06-01T06:18:19.187Z,20.56
2018-06-01T06:19:19.249Z,20.58
2018-06-01T06:20:19.313Z,20.60
2018-06-01T06:21:19.376Z,20.58
2018-06-01T06:22:19.440Z,20.48
2018-06-01T06:23:19.504Z,20.53
2018-06-01T06:24:19.567Z,20.60
2018-06-01T06:25:19.632Z,20.60
2018-06-01T06:26:19.698Z,20.64
2018-06-01T06:27:19.762Z,20.56
2018-06-01T06:28:19.823Z,20.48
2018-06-01T06:29:19.888Z,20.46
2018-06-01T06:30:19.951Z,20.50
2018-06-01T06:31:20.033Z,20.56
2018-06-01T06:32:20.078Z,20.50
2018-06-01T06:33:20.140Z,20.35
2018-06-01T06:34:20.205Z,20.40
2018-06-01T06:35:20.270Z,20.37
2018-06-01T06:36:20.331Z,20.46
2018-06-01T06:37:20.395Z,20.46
2018-06-01T06:38:20.459Z,20.35
2018-06-01T06:39:20.524Z,20.50
2018-06-01T06:40:20.586Z,20.58
2018-06-01T06:41:20.649Z,20.58
2018-06-01T06:42:20.712Z,20.58
2018-06-01T06:43:20.785Z,20.51
2018-06-01T06:44:21.242Z,20.56
2018-06-01T06:45:20.903Z,20.58
2018-06-01T06:46:20.967Z,20.72
2018-06-01T06:47:21.031Z,20.75
2018-06-01T06:48:21.113Z,20.85
2018-06-01T06:49:21.157Z,20.87
2018-06-01T06:50:21.222Z,20.83
2018-06-01T06:51:21.285Z,20.68
2018-06-01T06:52:21.348Z,20.71
2018-06-01T06:53:21.412Z,20.68
2018-06-01T06:54:21.476Z,20.60
2018-06-01T06:55:21.540Z,20.48
2018-06-01T06:56:21.605Z,20.38
2018-06-01T06:57:21.667Z,20.35
2018-06-01T06:58:21.731Z,20.30
2018-06-01T06:59:21.793Z,20.34
2018-06-01T07:00:21.857Z,20.48
2018-06-01T07:01:21.921Z,20.60
2018-06-01T07:02:21.985Z,20.71
2018-06-01T07:03:22.055Z,20.79
2018-06-01T07:04:22.112Z,20.91
2018-06-01T07:05:22.176Z,20.85
2018-06-01T07:06:22.241Z,20.79
2018-06-01T07:07:22.304Z,20.68
2018-06-01T07:08:22.367Z,20.64
2018-06-01T07:09:22.431Z,20.48
2018-06-01T07:10:22.495Z,20.50
2018-06-01T07:11:22.562Z,20.66
2018-06-01T07:12:22.622Z,20.75
2018-06-01T07:13:22.692Z,20.79
2018-06-01T07:14:22.750Z,20.82
2018-06-01T07:15:22.814Z,20.88
2018-06-01T07:16:22.879Z,20.76
2018-06-01T07:17:22.960Z,20.96
2018-06-01T07:18:23.007Z,21.01
2018-06-01T07:19:23.070Z,21.11
2018-06-01T07:20:23.165Z,21.01
2018-06-01T07:21:23.197Z,21.03
2018-06-01T07:22:23.314Z,21.01
2018-06-01T07:23:23.333Z,20.96
2018-06-01T07:24:23.388Z,20.96
2018-06-01T07:25:23.452Z,20.75
2018-06-01T07:26:23.521Z,20.35
2018-06-01T07:27:23.580Z,20.26
2018-06-01T07:28:23.644Z,20.19
2018-06-01T07:29:23.708Z,20.19
2018-06-01T07:30:23.772Z,20.34
2018-06-01T07:31:23.835Z,20.25
2018-06-01T07:32:23.898Z,20.17
2018-06-01T07:33:23.965Z,20.07
2018-06-01T07:34:24.026Z,20.10
2018-06-01T07:35:24.090Z,20.16
2018-06-01T07:36:24.153Z,20.19
2018-06-01T07:37:24.216Z,20.12
2018-06-01T07:38:24.281Z,20.10
2018-06-01T07:39:24.344Z,19.95
2018-06-01T07:40:24.406Z,20.04
2018-06-01T07:41:24.470Z,19.70
2018-06-01T07:42:24.534Z,19.67
2018-06-01T07:43:24.599Z,19.62
2018-06-01T07:44:24.660Z,19.68
2018-06-01T07:45:25.380Z,19.70
2018-06-01T07:46:24.786Z,19.65
2018-06-01T07:47:25.569Z,19.78
2018-06-01T07:48:25.503Z,19.89
2018-06-01T07:49:24.975Z,19.98
2018-06-01T07:50:25.053Z,20.20
2018-06-01T07:51:25.103Z,20.13
2018-06-01T07:52:25.165Z,20.17
2018-06-01T07:53:25.229Z,20.23
2018-06-01T07:54:25.294Z,20.08
2018-06-01T07:55:25.357Z,20.05
2018-06-01T07:56:25.418Z,20.15
2018-06-01T07:57:25.487Z,20.15
2018-06-01T07:58:25.545Z,20.19
2018-06-01T07:59:25.623Z,20.20
2018-06-01T08:00:25.672Z,20.23
2018-06-01T08:01:25.734Z,20.17
2018-06-01T08:02:25.797Z,20.22
2018-06-01T08:03:25.861Z,20.34
2018-06-01T08:04:25.929Z,20.31
2018-06-01T08:05:25.987Z,20.34
2018-06-01T08:06:26.050Z,20.31
2018-06-01T08:07:26.115Z,20.25
2018-06-01T08:08:26.177Z,20.27
2018-06-01T08:09:26.240Z,20.15
2018-06-01T08:10:26.304Z,20.25
2018-06-01T08:11:26.367Z,20.19
2018-06-01T08:12:26.428Z,20.23
2018-06-01T08:13:26.494Z,20.19
2018-06-01T08:14:26.559Z,20.17
2018-06-01T08:15:26.620Z,20.20
2018-06-01T08:16:26.683Z,20.23
2018-06-01T08:17:26.746Z,20.27
2018-06-01T08:18:26.809Z,20.27
2018-06-01T08:19:26.871Z,20.22
2018-06-01T08:20:26.935Z,20.31
2018-06-01T08:21:26.999Z,20.20
2018-06-01T08:22:27.063Z,20.23
2018-06-01T08:23:27.126Z,20.17
2018-06-01T08:24:27.187Z,20.25
2018-06-01T08:25:27.251Z,20.25
2018-06-01T08:26:27.316Z,20.04
2018-06-01T08:27:27.382Z,20.15
2018-06-01T08:28:27.442Z,20.07
2018-06-01T08:29:27.505Z,19.98
2018-06-01T08:30:27.567Z,20.12
2018-06-01T08:31:27.631Z,20.16
2018-06-01T08:32:27.701Z,20.17
2018-06-01T08:33:27.757Z,20.16
2018-06-01T08:34:27.820Z,20.17
2018-06-01T08:35:27.883Z,20.17
2018-06-01T08:36:27.946Z,20.19
2018-06-01T08:37:28.010Z,20.25
2018-06-01T08:38:28.074Z,20.17
2018-06-01T08:39:28.195Z,20.23
2018-06-01T08:40:28.200Z,20.20
2018-06-01T08:41:28.263Z,20.10
2018-06-01T08:42:28.326Z,20.16
2018-06-01T08:43:28.392Z,20.23
2018-06-01T08:44:28.452Z,20.16
2018-06-01T08:45:28.515Z,20.17
2018-06-01T08:46:28.641Z,20.05
2018-06-01T08:47:28.643Z,20.13
2018-06-01T08:48:28.706Z,20.13
2018-06-01T08:49:28.770Z,20.20
2018-06-01T08:50:28.834Z,20.26
2018-06-01T08:51:28.895Z,20.30
2018-06-01T08:52:28.966Z,20.27
2018-06-01T08:53:29.023Z,20.23
2018-06-01T08:54:29.087Z,20.22
2018-06-01T08:55:29.400Z,20.34
2018-06-01T08:56:29.212Z,20.26
2018-06-01T08:57:29.277Z,20.33
2018-06-01T08:58:29.339Z,20.27
2018-06-01T08:59:29.402Z,20.30
2018-06-01T09:00:29.467Z,20.25
2018-06-01T09:01:29.529Z,20.26
2018-06-01T09:02:29.593Z,20.27
2018-06-01T09:03:29.657Z,20.34
2018-06-01T09:04:29.755Z,20.30
2018-06-01T09:05:29.783Z,20.31
2018-06-01T09:06:29.848Z,20.27
2018-06-01T09:07:29.911Z,20.40
2018-06-01T09:08:29.975Z,20.57
2018-06-01T09:09:30.038Z,20.51
2018-06-01T09:10:30.102Z,20.53
2018-06-01T09:11:30.166Z,20.51
2018-06-01T09:12:30.231Z,20.64
2018-06-01T09:13:30.293Z,20.75
2018-06-01T09:14:30.359Z,20.88
2018-06-01T09:15:30.424Z,20.96
2018-06-01T09:16:30.484Z,20.94
2018-06-01T09:17:30.550Z,20.88
2018-06-01T09:18:30.616Z,20.97
2018-06-01T09:19:30.677Z,20.90
2018-06-01T09:20:30.741Z,20.87
2018-06-01T09:21:30.806Z,20.85
2018-06-01T09:22:30.870Z,20.82
2018-06-01T09:23:30.936Z,20.94
2018-06-01T09:24:30.999Z,20.82
2018-06-01T09:25:31.064Z,20.90
2018-06-01T09:26:31.129Z,20.93
2018-06-01T09:27:31.193Z,20.88
2018-06-01T09:28:31.273Z,20.83
2018-06-01T09:29:31.323Z,20.82
2018-06-01T09:30:31.388Z,20.88
2018-06-01T09:31:31.454Z,21.01
2018-06-01T09:32:31.517Z,20.96
2018-06-01T09:33:31.581Z,21.00
2018-06-01T09:34:31.746Z,21.01
2018-06-01T09:35:31.711Z,21.03
2018-06-01T09:36:31.778Z,20.98
2018-06-01T09:37:32.229Z,21.08
2018-06-01T09:38:31.906Z,21.11
2018-06-01T09:39:31.969Z,21.12
2018-06-01T09:40:32.033Z,21.18
2018-06-01T09:41:32.097Z,21.09
2018-06-01T09:42:32.167Z,21.18
2018-06-01T09:43:32.229Z,21.12
2018-06-01T09:44:32.293Z,21.22
2018-06-01T09:45:32.359Z,21.24
2018-06-01T09:46:32.422Z,21.24
2018-06-01T09:47:32.490Z,21.30
2018-06-01T09:48:32.552Z,21.27
2018-06-01T09:49:32.616Z,21.28
2018-06-01T09:50:32.681Z,21.09
2018-06-01T09:51:32.747Z,21.06
2018-06-01T09:52:32.812Z,21.05
2018-06-01T09:53:32.875Z,21.09
2018-06-01T09:54:32.941Z,21.21
2018-06-01T09:55:33.057Z,21.30
2018-06-01T09:56:33.069Z,21.38
2018-06-01T09:57:33.920Z,21.27
2018-06-01T09:58:33.201Z,21.22
2018-06-01T09:59:33.267Z,21.22
2018-06-01T10:00:33.330Z,21.28
2018-06-01T10:01:33.396Z,21.33
2018-06-01T10:02:33.465Z,21.31
2018-06-01T10:03:33.527Z,21.24
2018-06-01T10:04:33.592Z,21.15
2018-06-01T10:05:33.658Z,21.19
2018-06-01T10:06:33.723Z,21.28
2018-06-01T10:07:33.787Z,21.53
2018-06-01T10:08:33.854Z,21.53
2018-06-01T10:09:33.920Z,21.56
2018-06-01T10:10:33.984Z,21.58
2018-06-01T10:11:34.050Z,21.64
2018-06-01T10:12:34.113Z,21.68
2018-06-01T10:13:34.179Z,21.58
2018-06-01T10:14:34.245Z,21.45
2018-06-01T10:15:34.361Z,21.59
2018-06-01T10:16:34.377Z,21.77
2018-06-01T10:17:34.442Z,21.83
2018-06-01T10:18:34.508Z,21.90
2018-06-01T10:19:34.574Z,21.67
2018-06-01T10:20:34.637Z,21.75
2018-06-01T10:21:34.705Z,21.89
2018-06-01T10:22:34.771Z,21.98
2018-06-01T10:23:34.837Z,21.82
2018-06-01T10:24:35.192Z,21.75
2018-06-01T10:25:34.968Z,21.64
2018-06-01T10:26:35.055Z,21.70
2018-06-01T10:27:35.103Z,21.64
2018-06-01T10:28:35.169Z,21.81
2018-06-01T10:29:35.235Z,21.82
2018-06-01T10:30:35.300Z,22.08
2018-06-01T10:31:35.373Z,21.93
2018-06-01T10:32:35.432Z,21.94
2018-06-01T10:33:35.498Z,21.93
2018-06-01T10:34:35.565Z,22.06
2018-06-01T10:35:35.630Z,22.29
2018-06-01T10:36:35.697Z,22.51
2018-06-01T10:37:35.764Z,22.35
2018-06-01T10:38:35.830Z,22.48
2018-06-01T10:39:35.949Z,22.60
2018-06-01T10:40:35.963Z,22.33
2018-06-01T10:41:36.031Z,22.49
2018-06-01T10:42:36.096Z,22.70
2018-06-01T10:43:36.164Z,22.44
2018-06-01T10:44:36.237Z,22.45
2018-06-01T10:45:36.295Z,22.74
2018-06-01T10:46:36.364Z,22.61
2018-06-01T10:47:36.429Z,22.56
2018-06-01T10:48:36.495Z,22.38
2018-06-01T10:49:36.612Z,22.36
2018-06-01T10:50:36.631Z,22.30
2018-06-01T10:51:36.697Z,22.01
2018-06-01T10:52:36.764Z,21.93
2018-06-01T10:53:37.078Z,21.96
2018-06-01T10:54:36.896Z,22.12
2018-06-01T10:55:36.963Z,22.14
2018-06-01T10:56:37.030Z,22.27
2018-06-01T10:57:37.098Z,22.44
2018-06-01T10:58:37.164Z,22.36
2018-06-01T10:59:37.232Z,22.19
2018-06-01T11:00:37.297Z,22.29
2018-06-01T11:01:37.385Z,22.27
2018-06-01T11:02:37.433Z,22.19
2018-06-01T11:03:37.497Z,22.39
2018-06-01T11:04:37.565Z,22.48
2018-06-01T11:05:37.629Z,22.44
2018-06-01T11:06:37.697Z,22.38
2018-06-01T11:07:37.764Z,22.41
2018-06-01T11:08:37.830Z,22.45
2018-06-01T11:09:37.898Z,22.59
2018-06-01T11:10:38.755Z,22.75
2018-06-01T11:11:38.032Z,22.63
2018-06-01T11:12:38.099Z,22.72
2018-06-01T11:13:38.168Z,22.64
2018-06-01T11:14:38.234Z,22.72
2018-06-01T11:15:38.302Z,22.70
2018-06-01T11:16:38.366Z,23.00
2018-06-01T11:17:38.433Z,22.94
2018-06-01T11:18:38.504Z,22.93
2018-06-01T11:19:38.568Z,22.63
2018-06-01T11:20:38.635Z,22.61
2018-06-01T11:21:38.751Z,22.78
2018-06-01T11:22:38.838Z,23.01
2018-06-01T11:23:38.848Z,23.09
2018-06-01T11:24:38.905Z,23.15
2018-06-01T11:25:38.972Z,23.21
2018-06-01T11:26:39.042Z,23.18
2018-06-01T11:27:39.108Z,23.39
2018-06-01T11:28:39.176Z,23.72
2018-06-01T11:29:39.247Z,23.99
2018-06-01T11:30:39.312Z,24.05
2018-06-01T11:31:39.381Z,24.34
2018-06-01T11:32:39.450Z,24.42
2018-06-01T11:33:39.516Z,24.14
2018-06-01T11:34:39.585Z,23.89
2018-06-01T11:35:39.653Z,23.96
2018-06-01T11:36:39.721Z,24.18
2018-06-01T11:37:39.797Z,24.44
2018-06-01T11:38:40.109Z,24.64
2018-06-01T11:39:39.931Z,24.79
2018-06-01T11:40:39.996Z,24.14
2018-06-01T11:41:40.066Z,24.34
2018-06-01T11:42:40.135Z,24.92
2018-06-01T11:43:40.205Z,25.27
2018-06-01T11:44:40.273Z,24.89
2018-06-01T11:45:40.343Z,24.90
2018-06-01T11:46:40.414Z,25.56
2018-06-01T11:47:40.484Z,25.54
2018-06-01T11:48:40.554Z,25.41
2018-06-01T11:49:40.623Z,25.79
2018-06-01T11:50:40.693Z,26.06
2018-06-01T11:51:40.766Z,26.41
2018-06-01T11:52:40.838Z,26.12
2018-06-01T11:53:40.910Z,25.74
2018-06-01T11:54:40.982Z,24.89
2018-06-01T11:55:41.067Z,24.87
2018-06-01T11:56:41.119Z,24.56
2018-06-01T11:57:41.194Z,24.70
2018-06-01T11:58:41.263Z,24.46
2018-06-01T11:59:41.336Z,24.09
2018-06-01T12:00:41.657Z,23.69
2018-06-01T12:01:41.536Z,24.14
2018-06-01T12:02:41.547Z,24.05
2018-06-01T12:03:41.619Z,24.05
2018-06-01T12:04:41.689Z,25.34
2018-06-01T12:05:41.760Z,25.90
2018-06-01T12:06:41.836Z,26.23
2018-06-01T12:07:41.903Z,26.98
2018-06-01T12:08:41.973Z,27.38
2018-06-01T12:09:42.045Z,27.05
2018-06-01T12:10:42.118Z,27.01
2018-06-01T12:11:42.188Z,26.11
2018-06-01T12:12:42.259Z,25.89
2018-06-01T12:13:42.332Z,25.44
2018-06-01T12:14:42.405Z,26.13
2018-06-01T12:15:42.477Z,26.42
2018-06-01T12:16:42.549Z,26.09
2018-06-01T12:17:42.657Z,25.91
2018-06-01T12:18:42.695Z,25.66
2018-06-01T12:19:42.768Z,26.08
2018-06-01T12:20:42.838Z,26.84
2018-06-01T12:21:42.910Z,26.88
2018-06-01T12:22:42.983Z,26.71
2018-06-01T12:23:43.309Z,26.76
2018-06-01T12:24:43.128Z,26.12
2018-06-01T12:25:43.201Z,25.71
2018-06-01T12:26:43.917Z,25.93
2018-06-01T12:27:43.346Z,25.93
2018-06-01T12:28:43.422Z,25.14
2018-06-01T12:29:43.490Z,25.14
2018-06-01T12:30:43.562Z,25.16
2018-06-01T12:31:43.634Z,24.94
2018-06-01T12:32:43.705Z,24.33
2018-06-01T12:33:43.776Z,24.44
2018-06-01T12:34:43.849Z,24.61
2018-06-01T12:35:43.920Z,25.31
2018-06-01T12:36:43.991Z,25.44
2018-06-01T12:37:44.061Z,25.64
2018-06-01T12:38:44.133Z,25.41
2018-06-01T12:39:44.202Z,25.31
2018-06-01T12:40:44.273Z,25.27
2018-06-01T12:41:44.350Z,25.49
2018-06-01T12:42:44.421Z,25.66
2018-06-01T12:43:44.537Z,25.69
2018-06-01T12:44:44.558Z,25.81
2018-06-01T12:45:44.879Z,24.94
2018-06-01T12:46:44.701Z,25.53
2018-06-01T12:47:44.771Z,25.48
2018-06-01T12:48:44.840Z,26.31
2018-06-01T12:49:44.912Z,26.11
2018-06-01T12:50:44.985Z,25.39
2018-06-01T12:51:45.068Z,25.72
2018-06-01T12:52:45.126Z,25.26
2018-06-01T12:53:45.238Z,24.94